Time;durP1;ratioP1;P1;durP2;ratioP2;P2;SDS_P1;SDS_P2;PMS_P1;PMS_P2;Temp;Humidity;BMP_temperature;BMP_pressure;BME280_temperature;BME280_humidity;BME280_pressure;Samples;Min_cycle;Max_cycle;Signal;HPM_P1;HPM_P2
2022/09/17 01:59:58;;;;;;;7.03;3.97;;;;;;;;;;6249596;23;20088;-82
2022/09/17 02:03:01;;;;;;;8.00;4.13;;;;;;;;;;6227502;23;20021;-84
2022/09/17 03:36:36;;;;;;;28.00;11.02;;;;;;;;;;6118497;23;20030;-81
2022/09/17 03:49:08;;;;;;;59.30;20.80;;;;;;;;;;6065842;23;20026;-81
2022/09/17 04:05:09;;;;;;;39.67;16.88;;;;;;;;;;5968049;24;20040;-83
2022/09/17 04:13:01;;;;;;;;;;;;;;;;;;;;;
2022/09/17 04:24:37;;;;;;;34.50;18.70;;;;;;;;;;6106379;23;20014;-85
2022/09/17 04:40:48;;;;;;;;;;;;;;;;;;;;;
2022/09/17 04:44:24;;;;;;;5.90;4.20;;;;;;;;;;5982454;24;20024;-83
2022/09/17 04:50:59;;;;;;;3.20;2.90;;;;;;;;;;5951638;24;20016;-83
2022/09/17 05:10:57;;;;;;;1.80;1.65;;;;;;;;;;6153576;23;20021;-84
2022/09/17 05:14:28;;;;;;;;;;;;;;;;;;6150142;23;20025;-81
2022/09/17 05:17:16;;;;;;;5.25;4.30;;;;;;;;;;6138771;23;19908;-84
2022/09/17 05:20:02;;;;;;;3.42;2.88;;;;;;;;;;6241582;23;20020;-84
2022/09/17 05:22:52;;;;;;;3.50;2.80;;;;;;;;;;6257542;23;20349;-85
2022/09/17 05:25:38;;;;;;;4.07;3.22;;;;;;;;;;6257767;23;20020;-85
2022/09/17 05:28:24;;;;;;;3.38;2.78;;;;;;;;;;6257936;23;20016;-84
2022/09/17 05:31:09;;;;;;;3.38;2.85;;;;;;;;;;6235684;23;20020;-84
2022/09/17 05:33:57;;;;;;;7.25;5.32;;;;;;;;;;6257136;23;20350;-83
2022/09/17 05:54:49;;;;;;;;;;;;;;;;;;;;;
2022/09/17 06:20:10;;;;;;;3.70;1.55;;;;;;;;;;6059274;23;20015;-82
2022/09/17 06:30:56;;;;;;;96.20;54.35;;;;;;;;;;6091010;23;20015;-76
2022/09/17 06:33:47;;;;;;;77.10;44.35;;;;;;;;;;6129432;23;20021;-75
2022/09/17 06:36:34;;;;;;;246.20;172.20;;;;;;;;;;6223225;23;20044;-78
2022/09/17 06:39:19;;;;;;;55.97;38.00;;;;;;;;;;6233507;23;20016;-78
2022/09/17 06:42:05;;;;;;;8.95;5.72;;;;;;;;;;6236209;23;20017;-77
2022/09/17 06:44:50;;;;;;;6.35;3.20;;;;;;;;;;6210054;23;20016;-78
2022/09/17 06:47:36;;;;;;;4.55;3.03;;;;;;;;;;6236557;23;20020;-78
2022/09/17 06:50:22;;;;;;;4.93;4.32;;;;;;;;;;6234129;23;20349;-81
2022/09/17 06:53:08;;;;;;;56.83;40.28;;;;;;;;;;6229127;23;20020;-78
2022/09/17 06:55:57;;;;;;;14.70;9.82;;;;;;;;;;6228557;23;20016;-77
2022/09/17 06:58:43;;;;;;;90.20;52.83;;;;;;;;;;6230174;23;20017;-77
2022/09/17 07:01:28;;;;;;;5.93;4.47;;;;;;;;;;6231950;23;20024;-78
2022/09/17 07:04:13;;;;;;;10.60;7.60;;;;;;;;;;6231766;23;20364;-79
2022/09/17 07:06:59;;;;;;;12.30;9.20;;;;;;;;;;6229992;23;20017;-78
2022/09/17 07:09:44;;;;;;;15.38;10.77;;;;;;;;;;6228544;23;20020;-78
2022/09/17 07:12:30;;;;;;;11.57;8.02;;;;;;;;;;6232135;23;20020;-78
2022/09/17 07:15:15;;;;;;;7.72;6.93;;;;;;;;;;6232016;23;20021;-79
2022/09/17 07:18:11;;;;;;;8.50;6.63;;;;;;;;;;6228642;23;20017;-77
2022/09/17 07:20:59;;;;;;;8.10;6.63;;;;;;;;;;6243968;23;20020;-78
2022/09/17 07:23:45;;;;;;;11.02;7.22;;;;;;;;;;6265080;23;20020;-78
2022/09/17 07:26:30;;;;;;;8.50;6.70;;;;;;;;;;6264364;23;20020;-78
2022/09/17 07:29:16;;;;;;;8.60;6.18;;;;;;;;;;6261314;23;20016;-77
2022/09/17 07:32:01;;;;;;;7.97;5.78;;;;;;;;;;6265894;23;20042;-79
2022/09/17 07:34:48;;;;;;;6.60;5.60;;;;;;;;;;6260714;23;20020;-78
2022/09/17 07:37:33;;;;;;;10.18;7.40;;;;;;;;;;6256680;23;20434;-78
2022/09/17 07:40:19;;;;;;;8.60;6.75;;;;;;;;;;6234032;23;20441;-78
2022/09/17 07:43:05;;;;;;;7.70;6.15;;;;;;;;;;6258679;23;20012;-78
2022/09/17 07:45:52;;;;;;;7.97;6.63;;;;;;;;;;6259272;23;20020;-78
2022/09/17 07:48:37;;;;;;;14.88;10.93;;;;;;;;;;6259657;23;20020;-78
2022/09/17 07:51:25;;;;;;;148.25;102.82;;;;;;;;;;6258772;23;20020;-78
2022/09/17 07:54:09;;;;;;;20.52;12.55;;;;;;;;;;6258840;23;20020;-78
2022/09/17 07:56:54;;;;;;;34.78;25.13;;;;;;;;;;6258480;23;20020;-78
2022/09/17 07:59:40;;;;;;;74.82;48.53;;;;;;;;;;6259222;23;20019;-78
2022/09/17 08:02:27;;;;;;;178.85;122.43;;;;;;;;;;6258577;23;20020;-77
2022/09/17 08:05:12;;;;;;;134.13;96.38;;;;;;;;;;6259084;23;20016;-83
2022/09/17 08:07:58;;;;;;;70.50;49.47;;;;;;;;;;6235559;23;20020;-82
2022/09/17 08:10:43;;;;;;;15.15;10.65;;;;;;;;;;6258790;23;20016;-82
2022/09/17 08:13:29;;;;;;;24.48;17.40;;;;;;;;;;6257628;23;20020;-83
2022/09/17 08:16:16;;;;;;;10.82;8.52;;;;;;;;;;6259151;23;20342;-80
2022/09/17 08:19:02;;;;;;;10.32;8.63;;;;;;;;;;6258878;23;20020;-80
2022/09/17 08:21:48;;;;;;;20.40;13.55;;;;;;;;;;6250090;23;20429;-80
2022/09/17 08:24:33;;;;;;;14.52;11.27;;;;;;;;;;6258579;23;20016;-81
2022/09/17 08:27:19;;;;;;;8.45;7.00;;;;;;;;;;6258368;23;20442;-82
2022/09/17 08:30:06;;;;;;;7.57;6.38;;;;;;;;;;6258230;23;20016;-82
2022/09/17 08:32:55;;;;;;;10.50;6.38;;;;;;;;;;6257913;23;20020;-81
2022/09/17 08:35:40;;;;;;;7.90;6.28;;;;;;;;;;6258033;23;20020;-81
2022/09/17 08:38:27;;;;;;;8.23;6.43;;;;;;;;;;6257442;23;20020;-81
2022/09/17 08:41:36;;;;;;;8.90;4.90;;;;;;;;;;6258445;23;20016;-81
2022/09/17 08:44:32;;;;;;;6.88;5.22;;;;;;;;;;6245597;23;20445;-81
2022/09/17 08:47:26;;;;;;;7.03;4.40;;;;;;;;;;6258562;23;20008;-81
2022/09/17 08:50:24;;;;;;;7.60;5.85;;;;;;;;;;6268897;23;20020;-80
2022/09/17 08:53:42;;;;;;;8.77;5.13;;;;;;;;;;6259006;23;20019;-81
2022/09/17 08:56:30;;;;;;;7.57;5.93;;;;;;;;;;6198390;23;20020;-81
2022/09/17 08:59:37;;;;;;;8.85;4.78;;;;;;;;;;6258426;23;20020;-81
2022/09/17 09:02:22;;;;;;;4.80;4.07;;;;;;;;;;6258017;23;20020;-81
2022/09/17 09:05:14;;;;;;;5.72;5.00;;;;;;;;;;6257868;23;20023;-82
2022/09/17 09:08:06;;;;;;;10.27;4.68;;;;;;;;;;6258062;23;20016;-81
2022/09/17 09:10:55;;;;;;;6.63;4.80;;;;;;;;;;6257393;23;20020;-80
2022/09/17 09:13:45;;;;;;;14.85;6.78;;;;;;;;;;6256528;23;20020;-80
2022/09/17 09:16:33;;;;;;;8.43;7.05;;;;;;;;;;6257859;23;20020;-77
2022/09/17 09:19:23;;;;;;;8.35;5.38;;;;;;;;;;6257893;23;20020;-77
2022/09/17 09:22:26;;;;;;;7.00;5.15;;;;;;;;;;6257818;23;20012;-77
2022/09/17 09:25:25;;;;;;;6.72;4.85;;;;;;;;;;6257965;23;20020;-79
2022/09/17 09:28:22;;;;;;;14.43;9.30;;;;;;;;;;6258349;23;20016;-81
2022/09/17 09:31:18;;;;;;;4.32;2.72;;;;;;;;;;6257714;23;20445;-79
2022/09/17 09:34:03;;;;;;;4.90;3.22;;;;;;;;;;6260426;23;20019;-80
2022/09/17 09:36:50;;;;;;;8.68;6.10;;;;;;;;;;6259527;23;20024;-80
2022/09/17 09:39:37;;;;;;;8.30;4.45;;;;;;;;;;6239626;23;20016;-80
2022/09/17 09:42:49;;;;;;;6.55;5.07;;;;;;;;;;6261770;23;20434;-79
2022/09/17 09:45:56;;;;;;;5.93;3.53;;;;;;;;;;6263340;23;20016;-80
2022/09/17 09:48:50;;;;;;;8.63;3.88;;;;;;;;;;6264262;23;20016;-81
2022/09/17 09:51:54;;;;;;;5.63;3.58;;;;;;;;;;6265832;23;20012;-81
2022/09/17 09:54:57;;;;;;;7.07;3.60;;;;;;;;;;6264657;23;20016;-81
2022/09/17 09:57:47;;;;;;;4.53;3.90;;;;;;;;;;6265588;23;20016;-81
2022/09/17 10:00:38;;;;;;;8.18;3.60;;;;;;;;;;6267815;23;20695;-81
2022/09/17 10:03:31;;;;;;;5.85;4.10;;;;;;;;;;6265095;23;20016;-82
2022/09/17 10:06:18;;;;;;;5.72;3.80;;;;;;;;;;6266705;23;20020;-81
2022/09/17 10:09:03;;;;;;;5.45;3.70;;;;;;;;;;6263348;23;20016;-81
2022/09/17 10:12:15;;;;;;;5.15;3.78;;;;;;;;;;6263228;23;20016;-80
2022/09/17 10:15:25;;;;;;;4.93;4.43;;;;;;;;;;6263342;23;20016;-81
2022/09/17 10:18:22;;;;;;;7.60;5.90;;;;;;;;;;6262445;23;20016;-80
2022/09/17 10:21:19;;;;;;;7.70;5.47;;;;;;;;;;6253818;23;20016;-80
2022/09/17 10:24:25;;;;;;;7.38;4.75;;;;;;;;;;6260490;23;20016;-81
2022/09/17 10:27:18;;;;;;;8.27;5.05;;;;;;;;;;6261365;23;20016;-81
2022/09/17 10:30:06;;;;;;;8.13;4.72;;;;;;;;;;6259912;23;20020;-80
2022/09/17 10:33:16;;;;;;;7.32;5.43;;;;;;;;;;6238546;23;20020;-82
2022/09/17 10:36:06;;;;;;;7.72;5.60;;;;;;;;;;6260711;23;20020;-80
2022/09/17 10:38:52;;;;;;;9.82;6.68;;;;;;;;;;6259597;23;20021;-81
2022/09/17 10:41:55;;;;;;;9.40;5.60;;;;;;;;;;6236560;23;20012;-81
2022/09/17 10:44:54;;;;;;;41.17;17.30;;;;;;;;;;6261543;23;20346;-80
2022/09/17 10:47:42;;;;;;;7.95;5.00;;;;;;;;;;6261481;23;20015;-80
2022/09/17 10:50:33;;;;;;;8.10;5.05;;;;;;;;;;6263961;23;20342;-82
2022/09/17 10:53:20;;;;;;;61.22;26.30;;;;;;;;;;6264843;23;20426;-80
2022/09/17 10:56:18;;;;;;;59.75;26.48;;;;;;;;;;6263668;23;20020;-80
2022/09/17 10:59:38;;;;;;;168.93;60.17;;;;;;;;;;6264189;23;20016;-80
2022/09/17 11:02:45;;;;;;;16.58;8.05;;;;;;;;;;6263287;23;20020;-80
2022/09/17 11:06:14;;;;;;;11.90;5.68;;;;;;;;;;6262138;23;20338;-80
2022/09/17 11:09:34;;;;;;;7.72;4.53;;;;;;;;;;6215114;23;20020;-80
2022/09/17 11:12:50;;;;;;;5.78;4.07;;;;;;;;;;6262805;23;20016;-81
2022/09/17 11:15:35;;;;;;;6.38;4.53;;;;;;;;;;6261738;23;20020;-81
2022/09/17 11:18:44;;;;;;;9.13;4.63;;;;;;;;;;6261773;23;20020;-81
2022/09/17 11:21:47;;;;;;;6.53;4.72;;;;;;;;;;6254411;23;20338;-81
2022/09/17 11:25:12;;;;;;;6.82;4.40;;;;;;;;;;6262714;23;20434;-81
2022/09/17 11:28:28;;;;;;;5.30;3.65;;;;;;;;;;6218059;23;20012;-81
2022/09/17 11:31:24;;;;;;;6.32;4.18;;;;;;;;;;6259280;23;20020;-81
2022/09/17 11:34:40;;;;;;;6.75;4.10;;;;;;;;;;6261793;23;20023;-80
2022/09/17 11:37:34;;;;;;;6.55;3.90;;;;;;;;;;6263987;23;20017;-80
2022/09/17 11:40:25;;;;;;;5.38;3.58;;;;;;;;;;6261018;23;20016;-81
2022/09/17 11:43:27;;;;;;;6.57;3.90;;;;;;;;;;6259445;23;20338;-80
2022/09/17 11:46:19;;;;;;;4.95;3.78;;;;;;;;;;6259550;23;20434;-81
2022/09/17 11:49:12;;;;;;;6.28;3.60;;;;;;;;;;6259491;23;20012;-81
2022/09/17 11:52:00;;;;;;;5.63;3.85;;;;;;;;;;6258851;23;20023;-81
2022/09/17 11:55:04;;;;;;;5.63;3.80;;;;;;;;;;6257524;23;20450;-81
2022/09/17 11:58:20;;;;;;;8.48;6.45;;;;;;;;;;6233425;23;20334;-81
2022/09/17 12:01:28;;;;;;;7.53;5.22;;;;;;;;;;6255072;23;20012;-80
2022/09/17 12:04:53;;;;;;;7.38;4.85;;;;;;;;;;6257186;23;20020;-81
2022/09/17 12:08:16;;;;;;;9.35;5.03;;;;;;;;;;6259757;23;20023;-81
2022/09/17 12:11:16;;;;;;;8.93;5.03;;;;;;;;;;6258181;23;20016;-79
2022/09/17 12:14:08;;;;;;;7.13;5.32;;;;;;;;;;6257055;23;20016;-81
2022/09/17 12:16:59;;;;;;;9.05;4.90;;;;;;;;;;6235919;23;20020;-81
2022/09/17 12:19:50;;;;;;;10.80;5.57;;;;;;;;;;6258841;23;20020;-79
2022/09/17 12:22:40;;;;;;;7.03;5.22;;;;;;;;;;6258065;23;20020;-79
2022/09/17 12:25:33;;;;;;;6.15;4.40;;;;;;;;;;6258648;23;20020;-80
2022/09/17 12:28:29;;;;;;;8.73;5.18;;;;;;;;;;6234571;23;20020;-81
2022/09/17 12:31:27;;;;;;;8.15;5.18;;;;;;;;;;6258423;23;20064;-81
2022/09/17 12:34:53;;;;;;;6.75;5.07;;;;;;;;;;6258383;23;20020;-80
2022/09/17 12:38:03;;;;;;;9.93;5.28;;;;;;;;;;6258129;23;20019;-80
2022/09/17 12:41:24;;;;;;;8.63;5.78;;;;;;;;;;6258282;23;20020;-80
2022/09/17 12:44:29;;;;;;;9.60;5.05;;;;;;;;;;6147748;23;20018;-80
2022/09/17 12:47:58;;;;;;;7.18;5.38;;;;;;;;;;6258476;23;20016;-80
2022/09/17 12:51:05;;;;;;;18.50;9.95;;;;;;;;;;6235664;23;20015;-80
2022/09/17 12:54:01;;;;;;;18.92;7.70;;;;;;;;;;6258529;23;20008;-81
2022/09/17 12:56:55;;;;;;;12.75;7.97;;;;;;;;;;6258509;23;20020;-81
2022/09/17 12:59:59;;;;;;;10.50;6.72;;;;;;;;;;6258463;23;20016;-82
2022/09/17 13:02:52;;;;;;;9.18;7.05;;;;;;;;;;6258416;23;20020;-83
2022/09/17 13:06:35;;;;;;;11.10;6.80;;;;;;;;;;6258314;23;20016;-84
2022/09/17 13:09:51;;;;;;;8.05;5.90;;;;;;;;;;6134116;23;20022;-80
2022/09/17 13:12:56;;;;;;;7.22;4.88;;;;;;;;;;6135666;23;20018;-79
2022/09/17 13:16:04;;;;;;;5.55;4.55;;;;;;;;;;6258556;23;20020;-79
2022/09/17 13:19:13;;;;;;;7.57;5.38;;;;;;;;;;6257907;23;20020;-83
2022/09/17 13:22:02;;;;;;;11.63;5.93;;;;;;;;;;6245323;23;20028;-85
2022/09/17 13:25:06;;;;;;;12.00;5.50;;;;;;;;;;6255777;23;20012;-83
2022/09/17 13:28:05;;;;;;;7.50;5.25;;;;;;;;;;6234779;23;20016;-80
2022/09/17 13:31:00;;;;;;;6.45;4.85;;;;;;;;;;6257700;23;20020;-79
2022/09/17 13:33:58;;;;;;;7.70;5.00;;;;;;;;;;6257289;23;20442;-79
2022/09/17 13:36:49;;;;;;;8.73;4.95;;;;;;;;;;6256338;23;20016;-82
2022/09/17 13:39:50;;;;;;;10.25;5.80;;;;;;;;;;6257496;23;20016;-79
2022/09/17 13:42:45;;;;;;;9.82;5.35;;;;;;;;;;6257854;23;20012;-81
2022/09/17 13:45:32;;;;;;;5.97;4.70;;;;;;;;;;6257460;23;20020;-80
2022/09/17 13:48:21;;;;;;;6.70;5.22;;;;;;;;;;6256491;23;20016;-80
2022/09/17 13:51:30;;;;;;;8.43;5.40;;;;;;;;;;6257745;23;20434;-80
2022/09/17 13:54:18;;;;;;;9.88;5.22;;;;;;;;;;6244693;23;20024;-80
2022/09/17 14:01:11;;;;;;;10.93;5.57;;;;;;;;;;6183498;23;20024;-81
2022/09/17 14:03:57;;;;;;;7.63;5.47;;;;;;;;;;6257803;23;20024;-81
2022/09/17 14:06:52;;;;;;;8.18;5.05;;;;;;;;;;6257410;23;20020;-81
2022/09/17 14:10:17;;;;;;;8.10;5.18;;;;;;;;;;6256309;23;20012;-80
2022/09/17 14:21:39;;;;;;;11.55;8.20;;;;;;;;;;6249764;23;20437;-81
2022/09/17 14:24:35;;;;;;;17.57;5.60;;;;;;;;;;6257883;23;20020;-81
2022/09/17 14:28:08;;;;;;;17.10;6.05;;;;;;;;;;6256717;23;20016;-80
2022/09/17 14:30:53;;;;;;;58.13;39.55;;;;;;;;;;6238536;23;20016;-81
2022/09/17 14:33:39;;;;;;;17.02;8.80;;;;;;;;;;6257079;23;20020;-80
2022/09/17 14:36:41;;;;;;;10.15;5.30;;;;;;;;;;6257225;23;20016;-82
2022/09/17 14:39:41;;;;;;;8.48;5.30;;;;;;;;;;6257025;23;20016;-81
2022/09/17 14:42:35;;;;;;;13.75;7.25;;;;;;;;;;6234543;23;20015;-82
2022/09/17 14:45:29;;;;;;;;;;;;;;;;;;6257541;23;20024;-80
2022/09/17 14:48:27;;;;;;;13.52;8.05;;;;;;;;;;6257237;23;19907;-80
2022/09/17 14:51:54;;;;;;;10.65;6.88;;;;;;;;;;6256123;23;20020;-80
2022/09/17 14:54:43;;;;;;;10.20;5.95;;;;;;;;;;6224849;23;20020;-82
2022/09/17 14:57:28;;;;;;;10.40;5.50;;;;;;;;;;6256763;23;20015;-79
2022/09/17 15:00:20;;;;;;;9.48;5.75;;;;;;;;;;6255857;23;20015;-81
2022/09/17 15:03:18;;;;;;;11.75;6.05;;;;;;;;;;6256848;23;20430;-81
2022/09/17 15:06:03;;;;;;;8.27;5.50;;;;;;;;;;6258289;23;20020;-80
2022/09/17 15:08:49;;;;;;;10.18;5.30;;;;;;;;;;6257067;23;20011;-79
2022/09/17 15:11:41;;;;;;;11.45;5.47;;;;;;;;;;6256623;23;20430;-80
2022/09/17 15:14:30;;;;;;;17.67;12.10;;;;;;;;;;6257395;23;20016;-80
2022/09/17 15:17:18;;;;;;;11.48;6.60;;;;;;;;;;6238576;23;20000;-81
2022/09/17 15:20:16;;;;;;;11.57;7.25;;;;;;;;;;6243666;23;20020;-81
2022/09/17 15:23:14;;;;;;;16.27;7.10;;;;;;;;;;6257014;23;20020;-81
2022/09/17 15:26:02;;;;;;;9.93;6.88;;;;;;;;;;6255954;23;20019;-81
2022/09/17 15:28:48;;;;;;;20.25;7.82;;;;;;;;;;6256739;23;20435;-81
2022/09/17 15:31:36;;;;;;;12.13;7.28;;;;;;;;;;6256718;23;20016;-81
2022/09/17 15:34:22;;;;;;;12.90;7.10;;;;;;;;;;6256949;23;20346;-81
2022/09/17 15:37:20;;;;;;;50.85;26.33;;;;;;;;;;6257490;23;20016;-81
2022/09/17 15:40:32;;;;;;;23.70;13.98;;;;;;;;;;6257039;23;20012;-81
2022/09/17 15:43:26;;;;;;;12.27;7.30;;;;;;;;;;6257393;23;20020;-79
2022/09/17 15:46:29;;;;;;;18.65;6.18;;;;;;;;;;6255406;23;20020;-81
2022/09/17 15:49:28;;;;;;;13.57;6.25;;;;;;;;;;6256913;23;20016;-78
2022/09/17 15:52:33;;;;;;;13.35;6.38;;;;;;;;;;6256336;23;20430;-79
2022/09/17 15:55:33;;;;;;;9.25;6.78;;;;;;;;;;6256894;23;20024;-79
2022/09/17 15:58:22;;;;;;;12.30;7.47;;;;;;;;;;6256539;23;20012;-81
2022/09/17 16:01:14;;;;;;;16.02;7.55;;;;;;;;;;6257164;23;20020;-81
2022/09/17 16:04:17;;;;;;;18.17;7.70;;;;;;;;;;6258333;23;20020;-80
2022/09/17 16:07:06;;;;;;;11.38;6.72;;;;;;;;;;6259768;23;20020;-79
2022/09/17 16:09:52;;;;;;;16.20;7.68;;;;;;;;;;6239634;23;20012;-81
2022/09/17 16:12:38;;;;;;;17.58;9.40;;;;;;;;;;6274493;23;20016;-81
2022/09/17 16:15:27;;;;;;;18.33;9.40;;;;;;;;;;6263110;23;20016;-80
2022/09/17 16:18:14;;;;;;;19.45;10.35;;;;;;;;;;6237104;23;20330;-81
2022/09/17 16:21:00;;;;;;;14.90;10.57;;;;;;;;;;6262483;22;20020;-82
2022/09/17 16:23:46;;;;;;;15.15;10.43;;;;;;;;;;6264272;23;20330;-81
2022/09/17 16:26:45;;;;;;;17.35;9.43;;;;;;;;;;6261226;23;20020;-80
2022/09/17 16:29:34;;;;;;;15.02;9.35;;;;;;;;;;6258273;23;20012;-80
2022/09/17 16:32:20;;;;;;;16.75;9.20;;;;;;;;;;6262969;23;20024;-81
2022/09/17 16:35:06;;;;;;;18.27;10.20;;;;;;;;;;6265206;23;20015;-80
2022/09/17 16:37:55;;;;;;;19.02;10.68;;;;;;;;;;6266952;23;20020;-81
2022/09/17 16:40:43;;;;;;;13.98;8.90;;;;;;;;;;6260133;23;20020;-80
2022/09/17 16:43:29;;;;;;;14.68;9.77;;;;;;;;;;6273045;23;20024;-81
2022/09/17 16:46:15;;;;;;;19.05;9.70;;;;;;;;;;6248660;23;20016;-82
2022/09/17 16:53:13;;;;;;;21.88;9.90;;;;;;;;;;6178741;23;20021;-81
2022/09/17 16:55:58;;;;;;;19.52;9.10;;;;;;;;;;6243163;23;20012;-81
2022/09/17 16:58:44;;;;;;;13.15;8.23;;;;;;;;;;6262311;23;20338;-82
2022/09/17 17:01:29;;;;;;;12.98;8.20;;;;;;;;;;6262077;23;20024;-82
2022/09/17 17:04:16;;;;;;;9.52;6.35;;;;;;;;;;6260494;23;20020;-81
2022/09/17 17:07:02;;;;;;;14.02;8.57;;;;;;;;;;6270009;23;20020;-81
2022/09/17 17:09:47;;;;;;;11.93;8.48;;;;;;;;;;6264026;23;20012;-80
2022/09/17 17:12:35;;;;;;;13.13;7.35;;;;;;;;;;6267374;23;20016;-80
2022/09/17 17:15:22;;;;;;;18.45;8.63;;;;;;;;;;6264149;23;20341;-81
2022/09/17 17:18:07;;;;;;;13.73;8.05;;;;;;;;;;6265961;23;20422;-80
2022/09/17 17:20:52;;;;;;;12.02;5.75;;;;;;;;;;6254334;23;20016;-80
2022/09/17 17:23:45;;;;;;;15.35;8.77;;;;;;;;;;6258924;23;20016;-77
2022/09/17 17:26:32;;;;;;;16.67;8.82;;;;;;;;;;6258987;23;20016;-78
2022/09/17 17:29:17;;;;;;;12.02;7.15;;;;;;;;;;6257051;23;20016;-78
2022/09/17 17:32:04;;;;;;;12.88;8.30;;;;;;;;;;6258513;23;20020;-76
2022/09/17 17:34:50;;;;;;;11.90;7.90;;;;;;;;;;6258506;23;20326;-78
2022/09/17 17:37:35;;;;;;;12.18;7.95;;;;;;;;;;6257793;23;20015;-78
2022/09/17 17:40:21;;;;;;;15.75;8.57;;;;;;;;;;6258202;23;20438;-76
2022/09/17 17:43:06;;;;;;;15.57;8.48;;;;;;;;;;6258198;23;20021;-76
2022/09/17 17:45:52;;;;;;;16.08;8.77;;;;;;;;;;6258199;23;20430;-78
2022/09/17 17:48:37;;;;;;;13.75;8.63;;;;;;;;;;6257983;23;20012;-77
2022/09/17 17:51:24;;;;;;;11.27;7.03;;;;;;;;;;6257899;23;20020;-77
2022/09/17 17:54:09;;;;;;;13.60;7.13;;;;;;;;;;6262337;23;20453;-80
2022/09/17 17:56:55;;;;;;;12.13;7.30;;;;;;;;;;6258395;23;20015;-77
2022/09/17 17:59:41;;;;;;;8.43;4.78;;;;;;;;;;6257885;23;20020;-76
2022/09/17 18:02:26;;;;;;;10.07;6.00;;;;;;;;;;6258283;23;20020;-78
2022/09/17 18:05:55;;;;;;;;;;;;;;;;;;;;;
2022/09/17 18:09:09;;;;;;;7.38;4.38;;;;;;;;;;6258334;23;20015;-80
2022/09/17 18:11:55;;;;;;;10.80;6.10;;;;;;;;;;6235294;23;20024;-83
2022/09/17 18:14:42;;;;;;;10.00;5.18;;;;;;;;;;6258006;23;20016;-84
2022/09/17 18:17:28;;;;;;;4.75;2.67;;;;;;;;;;6257427;23;20020;-84
2022/09/17 18:20:14;;;;;;;8.75;5.50;;;;;;;;;;6255714;23;20020;-84
2022/09/17 18:23:04;;;;;;;9.10;5.60;;;;;;;;;;6258022;23;20016;-82
2022/09/17 18:25:58;;;;;;;9.80;5.05;;;;;;;;;;6257882;23;20024;-82
2022/09/17 18:28:45;;;;;;;15.23;4.60;;;;;;;;;;6257779;23;20016;-85
2022/09/17 18:31:36;;;;;;;7.05;4.55;;;;;;;;;;6257443;23;20019;-84
2022/09/17 18:34:26;;;;;;;7.45;4.78;;;;;;;;;;6236056;23;20020;-84
2022/09/17 18:37:12;;;;;;;10.43;5.38;;;;;;;;;;6234663;23;20354;-82
2022/09/17 18:40:03;;;;;;;10.68;5.50;;;;;;;;;;6236554;23;20020;-83
2022/09/17 18:42:48;;;;;;;7.28;4.35;;;;;;;;;;6258099;23;20016;-84
2022/09/17 18:45:34;;;;;;;7.43;4.70;;;;;;;;;;6256591;23;20020;-84
2022/09/17 18:48:20;;;;;;;4.93;3.25;;;;;;;;;;6258506;23;20016;-83
2022/09/17 18:51:13;;;;;;;4.00;3.10;;;;;;;;;;6256731;23;20174;-83
2022/09/17 18:54:05;;;;;;;3.07;2.23;;;;;;;;;;6258183;23;20438;-79
2022/09/17 18:56:50;;;;;;;2.25;1.65;;;;;;;;;;6257722;23;20024;-78
2022/09/17 18:59:36;;;;;;;2.67;1.73;;;;;;;;;;6257984;23;20016;-79
2022/09/17 19:02:21;;;;;;;1.10;0.98;;;;;;;;;;6257611;23;20359;-79
2022/09/17 19:05:08;;;;;;;2.00;1.73;;;;;;;;;;6257837;23;20020;-82
2022/09/17 19:08:03;;;;;;;1.65;1.33;;;;;;;;;;6261824;23;20020;-79
2022/09/17 19:10:52;;;;;;;0.60;0.60;;;;;;;;;;6257737;23;20422;-79
2022/09/17 19:13:41;;;;;;;1.60;1.45;;;;;;;;;;6257329;23;20430;-80
2022/09/17 19:16:26;;;;;;;3.50;1.10;;;;;;;;;;6256943;23;20012;-77
2022/09/17 19:19:17;;;;;;;1.92;1.23;;;;;;;;;;6257200;23;20016;-80
2022/09/17 19:22:08;;;;;;;1.30;1.20;;;;;;;;;;6247460;23;20438;-80
2022/09/17 19:24:55;;;;;;;1.25;1.10;;;;;;;;;;6253219;23;20024;-79
2022/09/17 19:27:40;;;;;;;1.25;1.02;;;;;;;;;;6234825;23;20028;-79
2022/09/17 19:30:28;;;;;;;0.80;0.77;;;;;;;;;;6256616;23;20012;-79
2022/09/17 19:33:37;;;;;;;1.27;1.10;;;;;;;;;;6256582;23;20020;-80
2022/09/17 19:36:23;;;;;;;0.57;0.57;;;;;;;;;;6255251;23;20020;-81
2022/09/17 19:42:54;;;;;;;0.30;0.30;;;;;;;;;;6224100;23;20020;-80
2022/09/17 19:45:39;;;;;;;9.40;1.08;;;;;;;;;;6226424;23;20020;-77
2022/09/17 19:48:25;;;;;;;3.35;1.60;;;;;;;;;;6225774;23;20020;-78
2022/09/17 19:51:16;;;;;;;5.00;1.30;;;;;;;;;;6205995;23;20016;-78
2022/09/17 19:54:08;;;;;;;2.83;1.60;;;;;;;;;;6226220;23;20020;-76
2022/09/17 19:56:53;;;;;;;0.85;0.40;;;;;;;;;;6226150;23;20450;-79
2022/09/17 19:59:40;;;;;;;1.95;0.90;;;;;;;;;;6225932;23;20020;-76
2022/09/17 20:02:25;;;;;;;1.27;0.60;;;;;;;;;;6225799;23;20020;-76
2022/09/17 20:05:11;;;;;;;0.60;0.57;;;;;;;;;;6226447;23;20024;-77
2022/09/17 20:07:57;;;;;;;0.43;0.43;;;;;;;;;;6226616;23;20020;-78
2022/09/17 20:10:49;;;;;;;0.65;0.47;;;;;;;;;;6248063;23;20016;-77
2022/09/17 20:13:40;;;;;;;0.35;0.35;;;;;;;;;;6227456;23;20020;-77
2022/09/17 20:16:27;;;;;;;1.08;0.65;;;;;;;;;;6225734;23;20127;-78
2022/09/17 20:19:15;;;;;;;0.77;0.47;;;;;;;;;;6224490;23;20346;-77
2022/09/17 20:22:01;;;;;;;4.93;0.45;;;;;;;;;;6224849;23;20016;-76
2022/09/17 20:24:46;;;;;;;0.88;0.70;;;;;;;;;;6225797;23;20021;-78
2022/09/17 20:27:32;;;;;;;0.40;0.40;;;;;;;;;;6225900;23;20021;-76
2022/09/17 20:30:18;;;;;;;4.05;0.60;;;;;;;;;;6225849;23;20454;-78
2022/09/17 20:33:04;;;;;;;1.42;0.60;;;;;;;;;;6226680;23;20024;-77
2022/09/17 20:36:00;;;;;;;1.00;0.63;;;;;;;;;;6226506;23;20016;-76
2022/09/17 20:38:52;;;;;;;0.63;0.40;;;;;;;;;;6226973;23;20339;-76
2022/09/17 20:41:42;;;;;;;0.60;0.60;;;;;;;;;;6205207;23;20020;-77
2022/09/17 20:44:33;;;;;;;1.75;0.45;;;;;;;;;;6225110;23;20021;-78
2022/09/17 20:47:18;;;;;;;0.40;0.40;;;;;;;;;;6227363;23;20021;-76
2022/09/17 20:50:05;;;;;;;0.80;0.57;;;;;;;;;;6227227;23;20446;-78
2022/09/17 20:52:54;;;;;;;0.50;0.50;;;;;;;;;;6227027;23;20024;-77
2022/09/17 20:55:40;;;;;;;0.50;0.50;;;;;;;;;;6227944;23;20454;-78
2022/09/17 20:58:30;;;;;;;0.60;0.60;;;;;;;;;;6227742;23;20016;-77
2022/09/17 21:01:24;;;;;;;0.70;0.63;;;;;;;;;;6227973;23;20021;-77
2022/09/17 21:04:11;;;;;;;0.98;0.77;;;;;;;;;;6229053;23;20021;-77
2022/09/17 21:06:56;;;;;;;0.73;0.73;;;;;;;;;;6228201;23;20016;-76
2022/09/17 21:09:42;;;;;;;0.60;0.60;;;;;;;;;;6228295;23;20016;-76
2022/09/17 21:12:33;;;;;;;0.80;0.80;;;;;;;;;;6228063;23;20020;-77
2022/09/17 21:15:18;;;;;;;1.33;1.05;;;;;;;;;;6228664;23;20020;-78
2022/09/17 21:18:09;;;;;;;0.57;0.57;;;;;;;;;;6227996;23;20024;-76
2022/09/17 21:20:54;;;;;;;0.80;0.80;;;;;;;;;;6228621;23;20020;-76
2022/09/17 21:23:40;;;;;;;1.20;1.10;;;;;;;;;;6227841;23;20021;-77
2022/09/17 21:26:25;;;;;;;0.90;0.90;;;;;;;;;;6227993;23;20016;-78
2022/09/17 21:29:12;;;;;;;1.23;0.90;;;;;;;;;;6227656;23;20017;-77
2022/09/17 21:31:58;;;;;;;1.33;1.10;;;;;;;;;;6227307;23;20017;-78
2022/09/17 21:34:44;;;;;;;0.88;0.82;;;;;;;;;;6227009;23;20020;-77
2022/09/17 21:37:31;;;;;;;0.70;0.70;;;;;;;;;;6226917;23;20431;-77
2022/09/17 21:40:17;;;;;;;1.77;1.10;;;;;;;;;;6226535;23;20438;-77
2022/09/17 21:43:05;;;;;;;0.50;0.50;;;;;;;;;;6227124;23;20024;-79
2022/09/17 21:46:04;;;;;;;0.60;0.60;;;;;;;;;;6226617;23;20016;-77
2022/09/17 21:48:50;;;;;;;1.38;0.90;;;;;;;;;;6226386;23;20342;-78
2022/09/17 21:51:41;;;;;;;1.75;0.90;;;;;;;;;;6226527;23;20350;-77
2022/09/17 21:54:26;;;;;;;1.10;0.90;;;;;;;;;;6204327;23;20020;-77
2022/09/17 21:57:11;;;;;;;1.10;1.00;;;;;;;;;;6226253;23;20021;-78
2022/09/17 21:59:57;;;;;;;1.23;0.90;;;;;;;;;;6226635;23;20021;-78
2022/09/17 22:02:43;;;;;;;2.53;1.00;;;;;;;;;;6226770;23;20025;-77
2022/09/17 22:05:28;;;;;;;1.05;0.88;;;;;;;;;;6226988;23;20013;-76
2022/09/17 22:08:14;;;;;;;1.00;0.90;;;;;;;;;;6224890;23;20016;-77
2022/09/17 22:11:11;;;;;;;0.80;0.75;;;;;;;;;;6224287;23;20347;-77
2022/09/17 22:13:56;;;;;;;0.82;0.73;;;;;;;;;;6224943;23;20390;-77
2022/09/17 22:16:49;;;;;;;0.85;0.85;;;;;;;;;;6225503;23;20457;-77
2022/09/17 22:19:35;;;;;;;1.17;0.88;;;;;;;;;;6231917;23;20017;-77
2022/09/17 22:22:21;;;;;;;1.48;0.88;;;;;;;;;;6248090;23;20406;-77
2022/09/17 22:25:12;;;;;;;0.80;0.80;;;;;;;;;;6223335;23;20020;-78
2022/09/17 22:28:11;;;;;;;1.05;0.88;;;;;;;;;;6225485;23;20017;-80
2022/09/17 22:31:02;;;;;;;1.40;0.90;;;;;;;;;;6228015;23;20025;-75
2022/09/17 22:33:48;;;;;;;2.58;0.80;;;;;;;;;;6228315;23;20345;-76
2022/09/17 22:36:35;;;;;;;0.73;0.70;;;;;;;;;;6228084;23;20343;-78
2022/09/17 22:39:22;;;;;;;0.95;0.80;;;;;;;;;;6228781;23;20025;-77
2022/09/17 22:42:06;;;;;;;0.80;0.80;;;;;;;;;;6227095;23;20025;-76
2022/09/17 22:44:51;;;;;;;1.85;0.85;;;;;;;;;;6225346;23;20020;-76
2022/09/17 22:47:41;;;;;;;0.63;0.63;;;;;;;;;;6223906;23;20016;-76
2022/09/17 22:50:26;;;;;;;0.60;0.60;;;;;;;;;;6224910;23;20025;-76
2022/09/17 22:53:22;;;;;;;0.63;0.63;;;;;;;;;;6225248;23;20339;-76
2022/09/17 22:56:11;;;;;;;0.60;0.60;;;;;;;;;;6225182;23;20016;-76
2022/09/17 22:58:57;;;;;;;0.75;0.70;;;;;;;;;;6224147;23;20205;-76
2022/09/17 23:01:43;;;;;;;0.55;0.47;;;;;;;;;;6225260;23;20020;-76